Time;durP1;ratioP1;P1;durP2;ratioP2;P2;SDS_P1;SDS_P2;PMS_P1;PMS_P2;Temp;Humidity;BMP_temperature;BMP_pressure;BME280_temperature;BME280_humidity;BME280_pressure;Samples;Min_cycle;Max_cycle;Signal;HPM_P1;HPM_P2
2021/07/24 00:02:31;;;;;;;15.35;8.20;;;23.00;99.90;;;;;;5031773;28;20044;-70
2021/07/24 00:05:35;;;;;;;12.52;7.60;;;23.00;99.90;;;;;;5031607;28;20052;-69
2021/07/24 00:08:39;;;;;;;11.30;7.35;;;22.90;99.90;;;;;;5033808;28;20048;-70
2021/07/24 00:11:44;;;;;;;15.02;7.43;;;22.90;99.90;;;;;;5027443;28;20037;-70
2021/07/24 00:14:49;;;;;;;10.65;7.55;;;22.90;99.90;;;;;;5010429;28;20088;-70
2021/07/24 00:18:01;;;;;;;15.25;8.02;;;22.90;99.90;;;;;;5038738;28;20052;-70
2021/07/24 00:21:05;;;;;;;10.40;8.07;;;22.80;99.90;;;;;;5050596;28;20519;-70
2021/07/24 00:24:09;;;;;;;11.00;7.63;;;22.80;99.90;;;;;;5050900;28;20048;-70
2021/07/24 00:27:13;;;;;;;13.50;7.75;;;22.90;99.90;;;;;;5031523;28;20050;-70
2021/07/24 00:30:18;;;;;;;14.40;8.68;;;22.80;99.90;;;;;;5030802;28;20040;-70
2021/07/24 00:33:29;;;;;;;12.83;7.97;;;22.80;99.90;;;;;;5030102;28;20056;-70
2021/07/24 00:36:33;;;;;;;11.25;7.60;;;22.70;99.90;;;;;;5030846;28;20424;-70
2021/07/24 00:39:37;;;;;;;11.27;8.45;;;22.80;99.90;;;;;;5030075;28;20032;-70
2021/07/24 00:42:46;;;;;;;18.50;8.20;;;22.70;99.90;;;;;;5036870;28;20067;-70
2021/07/24 00:45:54;;;;;;;14.52;8.00;;;22.60;99.90;;;;;;5050237;28;20048;-70
2021/07/24 00:49:01;;;;;;;11.77;8.35;;;22.60;99.90;;;;;;5050003;28;20060;-69
2021/07/24 00:52:28;;;;;;;17.25;8.95;;;22.60;99.90;;;;;;5050452;28;20048;-70
2021/07/24 00:55:33;;;;;;;15.02;8.00;;;22.50;99.90;;;;;;5050645;28;20056;-70
2021/07/24 00:58:37;;;;;;;14.63;8.85;;;22.50;99.90;;;;;;5049641;28;20048;-70
2021/07/24 01:01:42;;;;;;;13.45;8.45;;;22.50;99.90;;;;;;5049908;28;20067;-70
2021/07/24 01:04:47;;;;;;;16.92;8.32;;;22.50;99.90;;;;;;5049277;28;20052;-70
2021/07/24 01:07:52;;;;;;;16.10;8.48;;;22.50;99.90;;;;;;5049414;28;20048;-70
2021/07/24 01:10:56;;;;;;;13.38;9.00;;;22.50;99.90;;;;;;5049662;28;20052;-70
2021/07/24 01:14:00;;;;;;;11.32;7.70;;;22.50;99.90;;;;;;5048035;28;20059;-70
2021/07/24 01:17:05;;;;;;;14.60;9.00;;;22.50;99.90;;;;;;5040812;28;20522;-70
2021/07/24 01:20:17;;;;;;;11.05;8.75;;;22.40;99.90;;;;;;5029076;28;20055;-70
2021/07/24 01:23:24;;;;;;;12.48;8.18;;;22.40;99.90;;;;;;5029460;28;20048;-70
2021/07/24 01:26:36;;;;;;;13.40;8.93;;;22.30;99.90;;;;;;5029021;28;20511;-70
2021/07/24 01:29:41;;;;;;;13.60;8.40;;;22.30;99.90;;;;;;5029212;28;20048;-70
2021/07/24 01:32:51;;;;;;;12.30;8.10;;;22.20;99.90;;;;;;5029178;28;20040;-70
2021/07/24 01:35:55;;;;;;;12.57;8.90;;;22.20;99.90;;;;;;5029359;28;20044;-70
2021/07/24 01:39:00;;;;;;;12.93;9.30;;;22.30;99.90;;;;;;5029228;28;20040;-70
2021/07/24 01:42:05;;;;;;;13.68;9.13;;;22.30;99.90;;;;;;5028579;28;20049;-70
2021/07/24 01:45:15;;;;;;;15.15;10.38;;;22.30;99.90;;;;;;5028797;28;20048;-70
2021/07/24 01:48:29;;;;;;;12.18;8.98;;;22.30;99.90;;;;;;5029754;28;20044;-70
2021/07/24 01:55:25;;;;;;;13.15;9.27;;;22.20;99.90;;;;;;5029915;28;20107;-70
2021/07/24 01:58:56;;;;;;;17.02;10.27;;;22.20;99.90;;;;;;5029756;28;20053;-70
2021/07/24 02:02:03;;;;;;;15.40;9.20;;;22.10;99.90;;;;;;5029189;28;20503;-70
2021/07/24 02:05:18;;;;;;;16.40;9.77;;;22.10;99.90;;;;;;5028891;28;20044;-69
2021/07/24 02:08:26;;;;;;;12.13;8.57;;;22.00;99.90;;;;;;5028533;28;20121;-70
2021/07/24 02:11:32;;;;;;;16.40;9.90;;;21.90;99.90;;;;;;5029297;28;20495;-70
2021/07/24 02:14:38;;;;;;;18.23;10.15;;;21.80;99.90;;;;;;5027432;28;20044;-70
2021/07/24 02:17:49;;;;;;;13.50;9.27;;;21.80;99.90;;;;;;5042497;28;20099;-70
2021/07/24 02:20:54;;;;;;;13.65;9.93;;;21.70;99.90;;;;;;5052045;28;20048;-70
2021/07/24 02:23:59;;;;;;;14.88;9.63;;;21.50;99.90;;;;;;5052451;28;20048;-69
2021/07/24 02:27:08;;;;;;;11.77;9.93;;;21.40;99.90;;;;;;5052830;28;20764;-69
2021/07/24 02:30:19;;;;;;;18.05;10.55;;;21.30;99.90;;;;;;5052110;28;20048;-70
2021/07/24 02:33:23;;;;;;;14.15;9.95;;;21.30;99.90;;;;;;5053187;28;20044;-69
2021/07/24 02:36:28;;;;;;;13.82;10.73;;;21.30;99.90;;;;;;5044416;28;20044;-69
2021/07/24 02:39:32;;;;;;;15.98;10.20;;;21.30;99.90;;;;;;5026524;28;20052;-69
2021/07/24 02:42:38;;;;;;;14.25;9.93;;;21.30;99.90;;;;;;5032133;28;20044;-69
2021/07/24 02:45:43;;;;;;;13.95;9.82;;;21.30;99.90;;;;;;5029702;28;20056;-69
2021/07/24 02:48:48;;;;;;;13.43;10.18;;;21.20;99.90;;;;;;5031052;28;20456;-69
2021/07/24 02:52:24;;;;;;;15.30;9.77;;;21.30;99.90;;;;;;5032424;28;20120;-69
2021/07/24 02:55:29;;;;;;;13.77;10.00;;;21.30;99.90;;;;;;5019972;28;20421;-69
2021/07/24 02:58:34;;;;;;;11.95;9.57;;;21.40;99.90;;;;;;5032135;28;20056;-69
2021/07/24 03:01:40;;;;;;;14.30;9.75;;;21.40;99.90;;;;;;5030259;28;20507;-69
2021/07/24 03:04:45;;;;;;;13.50;10.27;;;21.30;99.90;;;;;;5032685;28;20056;-69
2021/07/24 03:07:49;;;;;;;15.75;10.15;;;21.10;99.90;;;;;;5032375;28;20044;-69
2021/07/24 03:10:53;;;;;;;15.02;10.40;;;20.90;99.90;;;;;;5026566;28;20040;-69
2021/07/24 03:13:58;;;;;;;14.02;10.38;;;20.80;99.90;;;;;;5029132;28;20040;-69
2021/07/24 03:17:02;;;;;;;13.88;10.25;;;20.70;99.90;;;;;;5033215;28;20499;-69
2021/07/24 03:20:07;;;;;;;12.63;10.40;;;20.60;99.90;;;;;;5030874;28;20076;-69
2021/07/24 03:23:12;;;;;;;17.83;10.50;;;20.60;99.90;;;;;;5029058;28;20064;-69
2021/07/24 03:26:17;;;;;;;20.33;10.48;;;20.60;99.90;;;;;;5027814;28;20040;-69
2021/07/24 03:29:23;;;;;;;17.55;10.43;;;20.70;99.90;;;;;;5031617;28;20044;-69
2021/07/24 03:32:27;;;;;;;13.60;11.35;;;20.60;99.90;;;;;;5031270;28;20041;-69
2021/07/24 03:35:31;;;;;;;15.27;10.75;;;20.60;99.90;;;;;;5031797;28;20498;-69
2021/07/24 03:38:35;;;;;;;17.10;11.38;;;20.60;99.90;;;;;;5031683;28;20040;-69
2021/07/24 03:41:39;;;;;;;20.88;11.43;;;20.50;99.90;;;;;;5012062;28;20044;-69
2021/07/24 03:44:43;;;;;;;22.35;11.18;;;20.40;99.90;;;;;;5012436;28;20049;-69
2021/07/24 03:47:47;;;;;;;19.67;11.73;;;20.40;99.90;;;;;;5012272;28;20033;-69
2021/07/24 03:50:51;;;;;;;17.13;11.00;;;20.40;99.90;;;;;;5011828;28;20057;-69
2021/07/24 03:53:55;;;;;;;16.20;10.32;;;20.50;99.90;;;;;;5012196;28;20049;-69
2021/07/24 03:57:00;;;;;;;16.70;10.73;;;20.50;99.90;;;;;;5011890;28;20503;-69
2021/07/24 04:00:04;;;;;;;19.17;10.70;;;20.50;99.90;;;;;;5011488;28;20044;-69
2021/07/24 04:03:10;;;;;;;13.02;10.30;;;20.40;99.90;;;;;;5011919;28;20065;-69
2021/07/24 04:06:35;;;;;;;14.82;10.23;;;20.50;99.90;;;;;;5011768;28;20199;-69
2021/07/24 04:09:39;;;;;;;15.48;9.75;;;20.60;99.90;;;;;;5011725;28;20049;-69
2021/07/24 04:12:43;;;;;;;15.85;9.90;;;20.80;99.90;;;;;;5011824;28;20048;-69
2021/07/24 04:15:48;;;;;;;11.25;9.93;;;20.90;99.90;;;;;;5011721;28;20048;-69
2021/07/24 04:18:52;;;;;;;13.65;9.52;;;21.10;99.90;;;;;;5011475;28;20053;-69
2021/07/24 04:21:56;;;;;;;14.55;10.05;;;21.20;99.90;;;;;;5011500;28;20393;-69
2021/07/24 04:25:00;;;;;;;13.38;9.40;;;21.40;99.90;;;;;;5011524;28;20052;-69
2021/07/24 04:28:04;;;;;;;13.15;9.80;;;21.50;99.90;;;;;;5011386;28;20049;-69
2021/07/24 04:31:16;;;;;;;15.35;9.25;;;21.60;99.90;;;;;;5009463;28;20052;-69
2021/07/24 04:34:21;;;;;;;16.45;10.52;;;21.70;99.90;;;;;;5011358;28;20082;-69
2021/07/24 04:37:25;;;;;;;15.20;9.82;;;21.70;99.90;;;;;;5011504;28;20049;-69
2021/07/24 04:40:29;;;;;;;15.10;9.75;;;21.80;99.90;;;;;;5011093;28;20064;-69
2021/07/24 04:43:33;;;;;;;13.27;9.50;;;21.90;99.90;;;;;;5011094;28;20073;-69
2021/07/24 04:46:37;;;;;;;13.18;9.38;;;21.90;99.90;;;;;;5011462;28;20033;-69
2021/07/24 04:49:49;;;;;;;13.65;9.68;;;22.00;99.90;;;;;;5011278;28;20045;-69
2021/07/24 04:52:54;;;;;;;12.57;9.88;;;22.40;99.90;;;;;;5021786;28;20420;-69
2021/07/24 04:55:58;;;;;;;17.58;9.45;;;23.00;99.90;;;;;;5010935;28;20508;-69
2021/07/24 04:59:06;;;;;;;14.07;10.00;;;23.20;99.90;;;;;;5009927;28;20393;-69
2021/07/24 05:02:10;;;;;;;13.48;9.32;;;23.50;99.90;;;;;;5010626;28;20056;-69
2021/07/24 05:05:14;;;;;;;14.30;9.10;;;24.30;99.90;;;;;;5010887;28;20041;-69
2021/07/24 05:08:19;;;;;;;11.60;9.23;;;24.80;99.90;;;;;;5010763;28;20045;-70
2021/07/24 05:11:23;;;;;;;19.15;9.50;;;25.30;99.90;;;;;;5010593;28;20496;-70
2021/07/24 05:14:27;;;;;;;11.00;9.15;;;26.10;99.90;;;;;;5010770;28;20048;-70
2021/07/24 05:17:32;;;;;;;15.25;9.45;;;26.80;99.90;;;;;;5033999;28;20048;-70
2021/07/24 05:20:36;;;;;;;13.35;9.02;;;27.40;99.90;;;;;;5049901;28;20040;-70
2021/07/24 05:23:40;;;;;;;10.20;7.13;;;28.00;99.90;;;;;;5049855;28;20044;-70
2021/07/24 05:26:44;;;;;;;12.77;8.68;;;28.50;99.90;;;;;;5049981;28;20044;-70
2021/07/24 05:29:48;;;;;;;12.13;8.27;;;29.00;99.90;;;;;;5050545;28;20490;-70
2021/07/24 05:32:52;;;;;;;14.10;8.27;;;28.70;99.90;;;;;;5050097;28;20048;-70
2021/07/24 05:35:56;;;;;;;13.43;7.57;;;29.10;99.90;;;;;;5049696;28;20044;-70
2021/07/24 05:39:00;;;;;;;14.40;7.72;;;29.60;99.40;;;;;;5050199;28;20395;-70
2021/07/24 05:42:04;;;;;;;11.05;7.63;;;29.10;99.60;;;;;;5049589;28;20063;-70
2021/07/24 05:45:09;;;;;;;11.65;7.55;;;29.80;98.90;;;;;;5049154;28;20043;-70
2021/07/24 05:48:13;;;;;;;12.23;7.10;;;30.10;98.00;;;;;;5030061;28;20535;-70
2021/07/24 05:51:17;;;;;;;12.85;7.28;;;30.20;97.70;;;;;;5009680;28;20037;-70
2021/07/24 05:54:22;;;;;;;10.07;7.10;;;30.70;96.90;;;;;;5009800;28;20053;-70
2021/07/24 05:57:27;;;;;;;8.93;6.63;;;30.30;97.50;;;;;;5010169;28;20037;-70
2021/07/24 06:00:31;;;;;;;12.52;7.35;;;30.70;97.00;;;;;;5009873;28;20376;-70
2021/07/24 06:03:35;;;;;;;10.90;7.57;;;29.90;97.60;;;;;;5010012;28;20045;-69
2021/07/24 06:06:40;;;;;;;13.45;6.85;;;28.40;98.40;;;;;;5019079;28;20048;-70
2021/07/24 06:09:45;;;;;;;11.57;7.30;;;29.30;98.30;;;;;;5022263;28;20053;-69
2021/07/24 06:12:50;;;;;;;9.55;6.95;;;29.80;97.40;;;;;;5027714;28;20040;-70
2021/07/24 06:15:55;;;;;;;9.45;6.57;;;29.80;97.20;;;;;;5028348;28;20041;-69
2021/07/24 06:19:00;;;;;;;12.07;7.32;;;28.70;98.10;;;;;;5018034;28;20044;-69
2021/07/24 06:22:05;;;;;;;11.68;7.03;;;28.10;98.30;;;;;;5016563;28;20084;-70
2021/07/24 06:25:11;;;;;;;12.15;7.13;;;28.70;98.50;;;;;;5008145;28;20041;-70
2021/07/24 06:28:16;;;;;;;10.20;6.55;;;29.60;97.90;;;;;;5011891;28;20393;-70
2021/07/24 06:31:20;;;;;;;10.15;5.60;;;29.80;97.20;;;;;;5010225;28;20412;-69
2021/07/24 06:34:24;;;;;;;9.57;6.03;;;30.00;97.10;;;;;;5009845;28;20052;-70
2021/07/24 06:37:28;;;;;;;11.73;6.47;;;30.40;96.20;;;;;;5010139;28;20045;-70
2021/07/24 06:40:32;;;;;;;15.10;6.60;;;29.70;96.90;;;;;;5009197;28;20412;-70
2021/07/24 06:43:36;;;;;;;9.82;6.63;;;29.90;96.50;;;;;;5008212;28;20044;-70
2021/07/24 06:46:41;;;;;;;8.25;6.43;;;30.60;95.50;;;;;;5010136;28;20044;-70
2021/07/24 06:49:45;;;;;;;10.23;6.70;;;30.90;95.60;;;;;;5015744;28;20045;-70
2021/07/24 06:52:50;;;;;;;8.07;6.10;;;30.30;95.10;;;;;;5018424;28;20041;-70
2021/07/24 06:55:57;;;;;;;10.88;6.78;;;30.10;95.00;;;;;;5011486;28;20502;-70
2021/07/24 06:59:01;;;;;;;11.23;5.93;;;29.20;96.30;;;;;;5008396;28;20037;-70
2021/07/24 07:02:10;;;;;;;13.75;6.45;;;30.10;96.30;;;;;;5011063;28;20036;-70
2021/07/24 07:05:14;;;;;;;13.90;6.82;;;29.70;95.70;;;;;;5023642;28;20049;-69
2021/07/24 07:08:18;;;;;;;9.95;6.35;;;29.90;96.10;;;;;;5024010;28;20046;-70
2021/07/24 07:11:24;;;;;;;11.80;6.55;;;31.10;95.10;;;;;;5013182;28;20041;-70
2021/07/24 07:14:28;;;;;;;9.38;6.43;;;31.10;94.30;;;;;;5022329;28;20037;-70
2021/07/24 07:17:35;;;;;;;10.52;6.63;;;30.50;94.40;;;;;;5044309;28;20438;-69
2021/07/24 07:20:39;;;;;;;13.57;6.55;;;30.20;95.20;;;;;;5051677;28;20036;-69
2021/07/24 07:23:42;;;;;;;9.77;6.68;;;30.80;95.00;;;;;;5027679;28;20396;-70
2021/07/24 07:26:46;;;;;;;7.03;6.00;;;30.90;93.70;;;;;;5030140;28;20048;-69
2021/07/24 07:29:50;;;;;;;13.57;6.88;;;30.70;94.40;;;;;;5032248;28;20052;-70
2021/07/24 07:32:54;;;;;;;8.77;5.47;;;30.20;94.70;;;;;;5031013;28;20048;-70
2021/07/24 07:35:58;;;;;;;9.73;5.90;;;32.40;93.50;;;;;;5028961;28;20036;-70
2021/07/24 07:39:02;;;;;;;14.80;6.70;;;32.20;93.50;;;;;;5022943;28;20047;-70
2021/07/24 07:42:06;;;;;;;7.90;5.38;;;34.50;91.30;;;;;;5032392;28;20503;-70
2021/07/24 07:45:12;;;;;;;10.95;5.70;;;35.90;89.60;;;;;;5027109;28;20384;-71
2021/07/24 07:48:16;;;;;;;9.88;5.68;;;34.90;89.90;;;;;;5032489;28;20032;-70
2021/07/24 07:51:20;;;;;;;8.38;5.55;;;35.10;89.40;;;;;;5031126;28;20044;-70
2021/07/24 07:54:24;;;;;;;11.05;5.60;;;36.50;87.30;;;;;;5032323;28;20056;-70
2021/07/24 07:57:29;;;;;;;6.25;5.18;;;33.90;87.30;;;;;;5032053;28;20052;-70
2021/07/24 08:00:35;;;;;;;6.50;4.88;;;35.90;87.00;;;;;;5031351;28;20048;-70
2021/07/24 08:03:41;;;;;;;10.75;5.40;;;37.60;83.60;;;;;;5031996;28;20496;-70
2021/07/24 08:06:45;;;;;;;7.00;5.07;;;34.30;85.60;;;;;;5031421;28;20048;-70
2021/07/24 08:09:48;;;;;;;7.40;5.15;;;35.60;86.10;;;;;;5031891;28;20045;-70
2021/07/24 08:12:53;;;;;;;12.32;5.20;;;37.80;82.40;;;;;;5031543;28;20048;-70
2021/07/24 08:15:57;;;;;;;6.47;4.72;;;39.30;79.60;;;;;;5031661;28;20400;-70
2021/07/24 08:19:01;;;;;;;6.90;5.03;;;38.80;77.80;;;;;;5011917;28;20061;-70
2021/07/24 08:22:05;;;;;;;8.10;4.80;;;39.00;77.50;;;;;;5011458;28;20381;-70
2021/07/24 08:25:10;;;;;;;8.70;4.55;;;40.60;75.70;;;;;;5011555;28;20041;-71
2021/07/24 08:28:14;;;;;;;9.23;5.50;;;41.10;73.90;;;;;;5011715;28;20053;-69
2021/07/24 08:31:18;;;;;;;8.55;5.38;;;40.00;73.80;;;;;;5010932;28;20040;-71
2021/07/24 08:34:22;;;;;;;8.75;4.93;;;38.20;75.70;;;;;;5011567;28;20049;-70
2021/07/24 08:37:26;;;;;;;8.35;5.05;;;37.60;77.40;;;;;;5011389;28;20524;-70
2021/07/24 08:40:30;;;;;;;6.10;4.63;;;36.60;77.50;;;;;;5010844;28;20056;-70
2021/07/24 08:43:35;;;;;;;8.07;4.65;;;39.10;76.10;;;;;;5011688;28;20053;-70
2021/07/24 08:46:39;;;;;;;7.55;4.15;;;41.30;73.60;;;;;;5011008;28;20056;-71
2021/07/24 08:49:43;;;;;;;7.97;4.72;;;39.80;72.30;;;;;;5010504;28;20052;-70
2021/07/24 08:52:53;;;;;;;10.43;5.13;;;37.70;76.10;;;;;;5010831;28;20045;-70
2021/07/24 08:56:08;;;;;;;9.18;5.25;;;38.10;74.00;;;;;;5010489;28;20060;-70
2021/07/24 08:59:16;;;;;;;7.13;4.70;;;36.30;77.60;;;;;;5011252;28;20431;-70
2021/07/24 09:02:27;;;;;;;4.57;3.90;;;38.50;76.00;;;;;;5010386;28;20049;-70
2021/07/24 09:05:32;;;;;;;;;;;40.30;73.40;;;;;;5011658;28;20045;-71
2021/07/24 09:08:37;;;;;;;10.50;4.78;;;38.60;73.30;;;;;;5011449;28;19917;-69
2021/07/24 09:11:41;;;;;;;11.07;4.40;;;40.40;71.60;;;;;;5010802;28;20041;-71
2021/07/24 09:14:45;;;;;;;8.27;4.38;;;40.30;70.70;;;;;;5011111;28;20056;-70
2021/07/24 09:17:49;;;;;;;8.75;4.30;;;40.70;71.30;;;;;;5039669;28;20518;-70
2021/07/24 09:20:53;;;;;;;8.48;4.07;;;42.40;68.80;;;;;;5050123;28;20063;-70
2021/07/24 09:24:22;;;;;;;5.97;3.58;;;43.80;68.20;;;;;;5050008;28;20111;-70
2021/07/24 09:27:26;;;;;;;6.85;3.63;;;41.10;67.40;;;;;;5050225;28;20044;-71
2021/07/24 09:30:34;;;;;;;8.32;3.90;;;43.40;66.50;;;;;;5049309;28;20044;-69
2021/07/24 09:33:49;;;;;;;5.63;3.70;;;43.60;66.10;;;;;;5050129;28;20415;-70
2021/07/24 09:36:53;;;;;;;11.25;3.33;;;45.20;62.10;;;;;;5049199;28;20040;-70
2021/07/24 09:40:31;;;;;;;6.55;3.10;;;44.90;58.20;;;;;;5049980;28;20502;-70
2021/07/24 09:43:40;;;;;;;7.45;3.40;;;46.10;58.00;;;;;;5037318;28;20063;-71
2021/07/24 09:46:54;;;;;;;6.88;3.35;;;47.30;56.40;;;;;;5049747;28;20040;-71
2021/07/24 09:50:13;;;;;;;7.05;3.33;;;45.50;56.50;;;;;;5049615;28;20526;-70
2021/07/24 09:53:39;;;;;;;3.83;2.72;;;45.50;57.20;;;;;;5049270;28;20036;-70
2021/07/24 09:56:44;;;;;;;6.30;2.50;;;45.50;56.00;;;;;;5049821;28;20519;-69
2021/07/24 09:59:50;;;;;;;5.32;3.25;;;45.80;54.30;;;;;;5049765;28;20040;-70
2021/07/24 10:03:06;;;;;;;5.97;2.90;;;44.50;55.40;;;;;;5048622;28;20044;-71
2021/07/24 10:06:11;;;;;;;4.70;2.85;;;43.50;56.00;;;;;;5049571;28;20401;-69
2021/07/24 10:09:16;;;;;;;4.40;2.63;;;42.60;56.20;;;;;;5049748;28;20036;-70
2021/07/24 10:12:20;;;;;;;8.48;3.38;;;42.70;56.80;;;;;;5049237;28;20070;-70
2021/07/24 10:15:27;;;;;;;7.05;3.30;;;43.10;57.00;;;;;;5049881;28;20055;-70
2021/07/24 10:18:32;;;;;;;6.35;2.88;;;44.10;56.40;;;;;;5009958;28;20050;-70
2021/07/24 10:21:36;;;;;;;4.20;3.38;;;45.50;55.80;;;;;;5009524;28;20045;-71
2021/07/24 10:24:41;;;;;;;6.18;3.38;;;47.10;54.70;;;;;;5009932;28;20056;-70
2021/07/24 10:27:47;;;;;;;7.93;3.50;;;47.10;55.20;;;;;;5010186;28;20060;-69
2021/07/24 10:30:54;;;;;;;6.70;4.00;;;45.60;55.80;;;;;;5008680;28;20053;-70
2021/07/24 10:34:02;;;;;;;8.05;3.03;;;43.90;57.00;;;;;;5009731;28;20056;-70
2021/07/24 10:37:35;;;;;;;6.82;3.05;;;44.00;56.80;;;;;;5009727;28;20049;-70
2021/07/24 10:40:39;;;;;;;6.50;3.95;;;44.90;55.10;;;;;;5010522;28;20058;-71
2021/07/24 10:44:32;;;;;;;5.60;3.30;;;41.80;56.00;;;;;;5012973;28;20052;-71
2021/07/24 10:47:36;;;;;;;6.82;3.95;;;41.60;57.90;;;;;;5012786;28;20049;-70
2021/07/24 10:51:01;;;;;;;6.68;3.10;;;40.90;57.80;;;;;;5012901;28;20065;-70
2021/07/24 10:54:06;;;;;;;7.40;3.90;;;40.70;58.50;;;;;;5024577;28;20049;-70
2021/07/24 10:57:11;;;;;;;5.88;3.45;;;36.60;61.30;;;;;;5013286;28;20037;-70
2021/07/24 11:00:21;;;;;;;9.55;3.55;;;37.20;61.60;;;;;;5013047;28;20053;-70
2021/07/24 11:03:33;;;;;;;6.43;3.30;;;37.90;61.20;;;;;;5026951;28;20045;-70
2021/07/24 11:06:37;;;;;;;8.55;3.70;;;38.00;60.40;;;;;;5036795;28;20047;-70
2021/07/24 11:10:06;;;;;;;9.38;4.22;;;36.30;62.90;;;;;;5032768;28;20048;-70
2021/07/24 11:13:47;;;;;;;7.50;3.85;;;34.20;67.00;;;;;;5045508;28;20051;-70
2021/07/24 11:17:12;;;;;;;9.68;4.40;;;34.90;66.20;;;;;;5052681;28;20044;-70
2021/07/24 11:20:18;;;;;;;5.75;4.30;;;35.00;65.00;;;;;;5050398;28;20040;-69
2021/07/24 11:23:23;;;;;;;8.38;4.05;;;34.90;65.80;;;;;;5032467;28;20044;-69
2021/07/24 11:26:28;;;;;;;5.35;3.92;;;34.10;65.90;;;;;;5032320;28;20073;-69
2021/07/24 11:29:32;;;;;;;10.55;4.15;;;33.60;66.20;;;;;;5032035;28;20053;-69
2021/07/24 11:32:47;;;;;;;7.57;4.25;;;33.40;66.90;;;;;;5032698;28;20052;-70
2021/07/24 11:35:52;;;;;;;7.13;4.57;;;33.50;67.40;;;;;;5031921;28;20040;-70
2021/07/24 11:38:59;;;;;;;5.22;3.92;;;33.50;66.50;;;;;;5046784;28;20048;-69
2021/07/24 11:42:19;;;;;;;7.15;3.80;;;33.40;65.80;;;;;;5030874;28;20044;-69
2021/07/24 11:45:23;;;;;;;6.88;3.80;;;32.90;66.00;;;;;;5030542;28;20048;-70
2021/07/24 11:48:28;;;;;;;10.73;4.00;;;32.60;65.80;;;;;;5023145;28;20041;-70
2021/07/24 11:51:33;;;;;;;12.18;4.15;;;32.20;66.40;;;;;;5028964;28;20054;-69
2021/07/24 11:54:37;;;;;;;9.85;4.15;;;32.00;65.80;;;;;;5027397;28;20044;-69
2021/07/24 11:57:42;;;;;;;8.43;4.18;;;32.10;66.80;;;;;;5029539;28;20032;-69
2021/07/24 12:01:00;;;;;;;9.15;4.40;;;31.90;67.10;;;;;;5028994;28;20040;-69
2021/07/24 12:04:07;;;;;;;8.27;4.15;;;32.20;68.20;;;;;;5029605;28;20036;-68
2021/07/24 12:07:12;;;;;;;8.93;4.05;;;33.00;68.00;;;;;;5031886;28;20048;-69
2021/07/24 12:10:16;;;;;;;9.55;4.20;;;33.50;68.20;;;;;;5031300;28;20038;-69
2021/07/24 12:13:27;;;;;;;13.23;4.00;;;34.00;68.80;;;;;;5031042;28;20040;-70
2021/07/24 12:16:41;;;;;;;4.68;3.38;;;34.70;68.00;;;;;;5031966;28;20040;-70
2021/07/24 12:19:45;;;;;;;9.43;4.03;;;35.40;68.70;;;;;;5031611;28;20040;-70
2021/07/24 12:22:49;;;;;;;4.70;3.67;;;36.20;68.40;;;;;;5031634;28;20061;-70
2021/07/24 12:26:21;;;;;;;7.30;4.18;;;36.70;67.60;;;;;;5031268;28;20040;-70
2021/07/24 12:29:26;;;;;;;10.52;4.45;;;37.10;67.50;;;;;;5031614;28;20748;-71
2021/07/24 12:32:38;;;;;;;12.00;4.50;;;38.50;65.40;;;;;;5031755;28;20044;-69
2021/07/24 12:35:42;;;;;;;10.25;4.03;;;40.00;64.10;;;;;;5030440;28;20044;-70
2021/07/24 12:38:46;;;;;;;10.25;3.60;;;40.60;60.50;;;;;;5031313;28;20105;-71
2021/07/24 12:42:02;;;;;;;6.22;3.45;;;41.20;60.80;;;;;;5030987;28;20053;-71
2021/07/24 12:45:21;;;;;;;7.03;3.88;;;41.40;60.00;;;;;;5030860;28;20052;-70
2021/07/24 12:48:26;;;;;;;12.07;4.35;;;41.30;59.70;;;;;;5030898;28;20048;-70
2021/07/24 12:51:39;;;;;;;7.50;3.42;;;41.30;59.60;;;;;;5030372;28;20388;-70
2021/07/24 12:55:10;;;;;;;6.70;3.88;;;39.20;59.10;;;;;;5029445;28;20041;-70
2021/07/24 12:58:15;;;;;;;;;;;38.00;61.20;;;;;;5031284;28;20392;-69
2021/07/24 13:01:21;;;;;;;5.95;4.30;;;37.80;61.20;;;;;;5030046;28;19939;-69
2021/07/24 13:04:25;;;;;;;7.55;4.00;;;37.70;61.60;;;;;;5029432;28;20431;-69
2021/07/24 13:07:29;;;;;;;6.43;4.00;;;37.60;60.80;;;;;;5030397;28;20049;-69
2021/07/24 13:10:33;;;;;;;9.35;3.60;;;37.00;62.20;;;;;;5030130;28;20047;-69
2021/07/24 13:13:37;;;;;;;7.32;4.75;;;36.50;61.90;;;;;;5049165;28;20045;-69
2021/07/24 13:16:43;;;;;;;6.07;4.07;;;36.20;61.20;;;;;;5050279;28;20040;-69
2021/07/24 13:19:48;;;;;;;9.48;4.38;;;36.60;61.20;;;;;;5049257;28;20049;-68
2021/07/24 13:22:53;;;;;;;8.98;4.22;;;36.60;61.60;;;;;;5050157;28;20055;-69
2021/07/24 13:29:36;;;;;;;10.88;4.60;;;36.70;62.40;;;;;;5009474;28;20318;-68
2021/07/24 13:32:41;;;;;;;6.22;3.83;;;36.40;60.00;;;;;;5050243;28;20036;-70
2021/07/24 13:35:47;;;;;;;7.70;3.80;;;36.70;62.00;;;;;;5049631;28;20067;-70
2021/07/24 13:38:51;;;;;;;7.90;4.30;;;37.20;60.50;;;;;;5050170;28;20044;-69
2021/07/24 13:41:55;;;;;;;8.25;4.10;;;36.30;60.70;;;;;;5049356;28;20048;-69
2021/07/24 13:44:58;;;;;;;9.32;4.60;;;35.50;61.50;;;;;;5049516;28;20052;-69
2021/07/24 13:48:03;;;;;;;9.32;4.25;;;35.90;61.60;;;;;;5049886;28;20502;-70
2021/07/24 13:51:07;;;;;;;9.75;4.10;;;34.70;63.20;;;;;;5048938;28;20040;-70
2021/07/24 13:54:12;;;;;;;8.93;4.57;;;34.00;63.90;;;;;;5049726;28;20399;-70
2021/07/24 13:57:17;;;;;;;5.95;4.40;;;34.00;65.60;;;;;;5049360;28;20039;-70
2021/07/24 14:00:21;;;;;;;11.75;4.32;;;34.00;65.10;;;;;;5049239;28;20048;-70
2021/07/24 14:03:25;;;;;;;9.18;4.50;;;34.60;65.00;;;;;;5049586;28;20048;-70
2021/07/24 14:06:29;;;;;;;6.75;4.40;;;34.00;65.70;;;;;;5049185;28;20052;-71
2021/07/24 14:09:33;;;;;;;13.20;5.10;;;34.30;64.40;;;;;;5048776;28;20056;-70
2021/07/24 14:12:39;;;;;;;8.02;4.78;;;33.50;64.30;;;;;;5038647;28;20041;-70
2021/07/24 14:15:43;;;;;;;12.68;4.45;;;33.60;64.70;;;;;;5031489;28;20036;-70
2021/07/24 14:18:47;;;;;;;9.55;4.97;;;34.00;63.80;;;;;;5033845;28;20420;-70
2021/07/24 14:21:52;;;;;;;9.38;4.85;;;33.90;63.40;;;;;;5032255;28;20044;-70
2021/07/24 14:24:57;;;;;;;9.40;4.53;;;34.20;63.60;;;;;;5033377;28;20045;-69
2021/07/24 14:28:01;;;;;;;9.45;4.50;;;34.40;62.70;;;;;;5033364;28;20052;-69
2021/07/24 14:31:06;;;;;;;9.55;4.70;;;34.40;62.60;;;;;;5032957;28;20044;-68
2021/07/24 14:34:10;;;;;;;9.27;4.43;;;34.00;62.50;;;;;;5033457;28;20040;-70
2021/07/24 14:37:14;;;;;;;9.20;4.70;;;33.80;63.80;;;;;;5033096;28;20044;-70
2021/07/24 14:40:19;;;;;;;6.35;4.22;;;33.70;63.70;;;;;;5032754;28;20049;-70
2021/07/24 14:43:24;;;;;;;8.77;5.00;;;33.40;64.30;;;;;;5033067;28;20407;-69
2021/07/24 14:46:28;;;;;;;8.00;4.38;;;33.00;65.10;;;;;;5032089;28;20060;-70
2021/07/24 14:49:32;;;;;;;8.77;4.97;;;32.90;65.50;;;;;;5033022;28;20040;-70
2021/07/24 14:52:36;;;;;;;7.07;4.80;;;32.70;65.50;;;;;;5033161;28;20036;-70
2021/07/24 14:55:41;;;;;;;6.78;4.75;;;32.60;65.80;;;;;;5032033;28;20060;-70
2021/07/24 14:58:47;;;;;;;10.30;4.75;;;32.70;65.90;;;;;;5033408;28;20427;-70
2021/07/24 15:01:52;;;;;;;10.45;4.82;;;32.60;65.90;;;;;;5032582;28;20044;-71
2021/07/24 15:04:56;;;;;;;11.23;5.50;;;32.60;66.10;;;;;;5033411;28;20052;-70
2021/07/24 15:08:00;;;;;;;8.98;5.20;;;32.80;66.10;;;;;;5033062;28;20044;-70
2021/07/24 15:11:06;;;;;;;10.07;5.15;;;32.90;66.30;;;;;;5032620;28;20400;-70
2021/07/24 15:14:10;;;;;;;11.55;4.53;;;33.10;66.20;;;;;;5013177;28;20052;-71
2021/07/24 15:17:14;;;;;;;11.18;5.15;;;33.40;66.80;;;;;;5012771;28;20049;-70
2021/07/24 15:20:18;;;;;;;9.95;5.10;;;33.00;65.20;;;;;;5012764;28;20065;-69
2021/07/24 15:23:23;;;;;;;13.02;5.07;;;33.00;66.40;;;;;;5012964;28;20049;-70
2021/07/24 15:26:27;;;;;;;8.85;5.20;;;32.80;66.40;;;;;;5012451;28;20049;-70
2021/07/24 15:29:31;;;;;;;12.98;5.10;;;33.00;67.00;;;;;;5019262;28;20524;-70
2021/07/24 15:32:36;;;;;;;9.40;4.88;;;33.20;67.10;;;;;;5042492;28;20047;-70
2021/07/24 15:35:40;;;;;;;9.75;5.38;;;33.10;66.00;;;;;;5024477;28;20502;-71
2021/07/24 15:38:44;;;;;;;12.07;5.03;;;33.30;66.30;;;;;;5052272;28;20048;-70
2021/07/24 15:41:48;;;;;;;11.57;5.25;;;33.50;66.60;;;;;;5012034;28;20484;-70
2021/07/24 15:44:53;;;;;;;7.10;5.00;;;34.20;66.80;;;;;;5012532;28;20401;-71
2021/07/24 15:48:01;;;;;;;7.57;4.55;;;33.70;66.10;;;;;;5015422;28;20045;-70
2021/07/24 15:51:08;;;;;;;18.70;5.40;;;33.50;66.20;;;;;;5051839;28;20048;-71
2021/07/24 15:54:11;;;;;;;13.48;5.18;;;33.50;66.20;;;;;;5051851;28;20064;-70
2021/07/24 15:57:15;;;;;;;10.18;4.90;;;34.30;66.60;;;;;;5051913;28;20409;-69
2021/07/24 16:00:19;;;;;;;6.82;5.20;;;34.30;68.30;;;;;;5051923;28;20076;-70
2021/07/24 16:03:24;;;;;;;10.32;5.40;;;34.60;68.90;;;;;;5052140;28;20048;-70
2021/07/24 16:06:28;;;;;;;6.50;4.53;;;34.90;68.30;;;;;;5037972;28;20128;-70
2021/07/24 16:09:35;;;;;;;10.52;4.68;;;35.00;68.50;;;;;;5031510;28;20515;-70
2021/07/24 16:12:39;;;;;;;7.72;4.55;;;35.00;68.50;;;;;;5030928;28;20057;-70